アルジェ の空港の天気 - METARとTAF

ウアリ・ブーメディアン空港 ( DAAG / ALG ) - アルジェリア アルジェ
飛行場実況気象(Metar)
観測時間07/29 03:00 CET (07/29 02:00 UTC)
風向・風速東北東 5m/s
視程8000m
天気現象
全天の4割程度の雲 雲底高度 300m
全天の8割程度の雲 雲底高度 1220m
気温26℃
湿度89%
気圧1012hPa
METARDAAG 290200Z 06009KT 8000 SCT010 BKN040 26/24 Q1012
過去の天気等 Google飛行場航空写真 Wunderground天気予報

過去48時間のMETAR

飛行場予報(TAF)
発表時間: 7/29 00:00 CET (7/28 23:00 UTC)
予報対象時間: 29日1時 CET ~ 30日1時 CET
風向・風速不定 1m/s
視程10km以上
少しの雲 雲底高度 460m
全天の8割程度の雲 雲底高度 1220m
29日1時 CET ~ 29日7時 CET に 確率 30% で一時的に
視程4000m
天気現象もや
全天の8割程度の雲 雲底高度 300m
29日10時 CET ~ 29日13時 CET に徐々に
風向・風速北東 5m/s
29日19時 CET ~ 29日22時 CET に徐々に
風向・風速不定 1m/s
TAF DAAG 282300Z 2900/2924 VRB02KT 9999 FEW015 BKN040
PROB30 TEMPO 2900/2906 4000 BR BKN010
BECMG 2909/2912 04010KT
BECMG 2918/2921 VRB02KT